createdAt,value
2022-09-02T00:01:58.648Z,15.65
2022-09-02T00:04:29.157Z,15.63
2022-09-02T00:06:59.657Z,15.58
2022-09-02T00:09:30.373Z,15.53
2022-09-02T00:12:00.846Z,15.50
2022-09-02T00:14:33.273Z,15.47
2022-09-02T00:17:04.032Z,15.43
2022-09-02T00:19:35.184Z,15.41
2022-09-02T00:22:06.037Z,15.36
2022-09-02T00:24:36.786Z,15.31
2022-09-02T00:27:07.445Z,15.25
2022-09-02T00:29:39.713Z,15.21
2022-09-02T00:32:10.183Z,15.17
2022-09-02T00:34:40.651Z,15.16
2022-09-02T00:37:11.262Z,15.14
2022-09-02T00:39:41.844Z,15.11
2022-09-02T00:42:12.323Z,15.07
2022-09-02T00:44:42.943Z,15.06
2022-09-02T00:47:15.372Z,15.06
2022-09-02T00:49:48.524Z,15.06
2022-09-02T00:52:22.660Z,15.03
2022-09-02T00:54:56.079Z,15.01
2022-09-02T00:57:28.464Z,14.98
2022-09-02T01:00:05.661Z,14.99
2022-09-02T01:02:37.392Z,15.00
2022-09-02T01:05:12.732Z,15.00
2022-09-02T01:07:43.349Z,15.01
2022-09-02T01:10:16.450Z,14.99
2022-09-02T01:12:47.409Z,14.98
2022-09-02T01:15:19.154Z,14.98
2022-09-02T01:17:51.333Z,15.00
2022-09-02T01:20:24.569Z,15.00
2022-09-02T01:22:58.125Z,15.00
2022-09-02T01:25:31.294Z,14.99
2022-09-02T01:28:06.284Z,14.98
2022-09-02T01:30:37.977Z,14.98
2022-09-02T01:33:08.528Z,14.99
2022-09-02T01:35:39.946Z,14.98
2022-09-02T01:38:10.765Z,14.96
2022-09-02T01:40:41.655Z,14.93
2022-09-02T01:43:14.687Z,14.93
2022-09-02T01:45:46.745Z,14.91
2022-09-02T01:48:21.742Z,14.91
2022-09-02T02:00:47.570Z,14.94
2022-09-02T02:03:19.876Z,14.89
2022-09-02T02:05:50.645Z,14.89
2022-09-02T02:08:21.391Z,14.90
2022-09-02T02:10:51.893Z,14.89
2022-09-02T02:13:22.715Z,14.89
2022-09-02T02:15:53.192Z,14.91
2022-09-02T02:18:23.734Z,14.92
2022-09-02T02:20:54.105Z,14.94
2022-09-02T02:23:24.684Z,14.94
2022-09-02T02:25:55.056Z,14.94
2022-09-02T02:28:25.448Z,14.96
2022-09-02T02:30:56.043Z,14.95
2022-09-02T02:33:31.932Z,14.95
2022-09-02T02:36:08.561Z,14.95
2022-09-02T02:38:39.622Z,14.95
2022-09-02T02:41:10.786Z,14.94
2022-09-02T02:43:41.784Z,14.93
2022-09-02T02:46:12.947Z,14.92
2022-09-02T02:48:44.044Z,14.93
2022-09-02T02:51:14.804Z,14.93
2022-09-02T02:53:45.427Z,14.93
2022-09-02T02:56:15.804Z,14.94
2022-09-02T02:58:46.269Z,14.92
2022-09-02T03:01:17.180Z,14.92
2022-09-02T03:03:47.912Z,14.91
2022-09-02T03:06:21.949Z,14.91
2022-09-02T03:08:57.587Z,14.90
2022-09-02T03:11:28.818Z,14.90
2022-09-02T03:14:00.578Z,14.90
2022-09-02T03:16:31.103Z,14.89
2022-09-02T03:19:02.345Z,14.90
2022-09-02T03:21:39.076Z,14.90
2022-09-02T03:24:11.171Z,14.90
2022-09-02T03:26:43.774Z,14.90
2022-09-02T03:29:14.502Z,14.90
2022-09-02T03:31:46.295Z,14.89
2022-09-02T03:34:17.289Z,14.89
2022-09-02T03:36:48.473Z,14.88
2022-09-02T03:39:20.374Z,14.87
2022-09-02T03:41:51.275Z,14.87
2022-09-02T03:44:21.814Z,14.87
2022-09-02T03:46:52.123Z,14.86
2022-09-02T03:49:22.484Z,14.86
2022-09-02T03:51:52.939Z,14.89
2022-09-02T03:54:23.481Z,14.88
2022-09-02T03:56:54.477Z,14.87
2022-09-02T03:59:25.406Z,14.87
2022-09-02T04:01:55.977Z,14.88
2022-09-02T04:04:26.564Z,14.88
2022-09-02T04:06:57.474Z,14.85
2022-09-02T04:09:28.046Z,14.83
2022-09-02T04:11:58.425Z,14.79
2022-09-02T04:14:28.936Z,14.76
2022-09-02T04:16:59.388Z,14.72
2022-09-02T04:19:30.119Z,14.69
2022-09-02T04:22:00.655Z,14.67
2022-09-02T04:24:31.175Z,14.64
2022-09-02T04:27:04.250Z,14.60
2022-09-02T04:29:36.014Z,14.57
2022-09-02T04:32:06.970Z,14.54
2022-09-02T04:34:37.933Z,14.51
2022-09-02T04:37:08.697Z,14.49
2022-09-02T04:39:39.534Z,14.49
2022-09-02T04:42:10.005Z,14.48
2022-09-02T04:44:40.539Z,14.45
2022-09-02T04:47:11.545Z,14.44
2022-09-02T04:49:43.156Z,14.46
2022-09-02T04:52:14.214Z,14.48
2022-09-02T04:54:45.171Z,14.59
2022-09-02T04:57:15.855Z,14.77
2022-09-02T04:59:46.425Z,14.87
2022-09-02T05:02:20.321Z,14.87
2022-09-02T05:04:52.474Z,14.84
2022-09-02T05:07:30.990Z,14.81
2022-09-02T05:10:03.081Z,14.81
2022-09-02T05:12:37.077Z,14.84
2022-09-02T05:15:10.308Z,14.84
2022-09-02T05:17:41.905Z,14.84
2022-09-02T05:20:14.137Z,14.84
2022-09-02T05:22:46.163Z,14.86
2022-09-02T05:25:18.530Z,14.88
2022-09-02T05:27:49.164Z,14.91
2022-09-02T05:30:19.755Z,14.94
2022-09-02T05:32:50.134Z,14.97
2022-09-02T05:35:21.776Z,15.02
2022-09-02T05:37:56.367Z,15.07
2022-09-02T05:40:30.749Z,15.11
2022-09-02T05:43:01.992Z,15.14
2022-09-02T05:45:34.305Z,15.16
2022-09-02T05:48:25.287Z,15.21
2022-09-02T05:50:57.853Z,15.29
2022-09-02T05:53:29.530Z,15.35
2022-09-02T05:56:00.913Z,15.42
2022-09-02T05:58:32.191Z,15.47
2022-09-02T06:01:02.660Z,15.57
2022-09-02T06:03:33.003Z,15.66
2022-09-02T06:06:06.704Z,15.74
2022-09-02T06:08:39.488Z,15.82
2022-09-02T06:11:12.649Z,15.91
2022-09-02T06:13:44.492Z,16.05
2022-09-02T06:16:19.227Z,16.15
2022-09-02T06:18:51.642Z,16.28
2022-09-02T06:21:22.244Z,16.40
2022-09-02T06:23:53.224Z,16.51
2022-09-02T06:26:24.232Z,16.54
2022-09-02T06:28:54.620Z,16.60
2022-09-02T06:31:25.300Z,16.67
2022-09-02T06:33:58.760Z,16.73
2022-09-02T06:36:30.858Z,16.79
2022-09-02T06:39:03.192Z,17.27
2022-09-02T06:41:34.581Z,18.04
2022-09-02T06:44:08.359Z,18.82
2022-09-02T06:46:43.680Z,19.71
2022-09-02T06:49:16.773Z,20.49
2022-09-02T06:51:51.134Z,21.04
2022-09-02T06:54:23.175Z,21.35
2022-09-02T06:56:57.444Z,21.74
2022-09-02T06:59:28.366Z,22.03
2022-09-02T07:02:01.395Z,22.26
2022-09-02T07:04:51.252Z,22.54
2022-09-02T07:07:24.113Z,23.03
2022-09-02T07:10:03.991Z,23.43
2022-09-02T07:12:36.630Z,23.68
2022-09-02T07:15:12.067Z,23.71
2022-09-02T07:17:43.670Z,23.70
2022-09-02T07:20:18.503Z,23.78
2022-09-02T07:22:56.324Z,23.83
2022-09-02T07:25:27.995Z,23.62
2022-09-02T07:27:58.412Z,23.59
2022-09-02T07:30:29.070Z,23.60
2022-09-02T07:33:05.189Z,23.63
2022-09-02T07:35:36.885Z,23.61
2022-09-02T07:38:09.142Z,23.48
2022-09-02T07:40:43.269Z,23.54
2022-09-02T07:43:14.561Z,23.68
2022-09-02T07:45:45.370Z,23.75
2022-09-02T07:48:16.273Z,23.85
2022-09-02T07:50:47.397Z,23.82
2022-09-02T07:53:18.859Z,23.73
2022-09-02T07:55:49.869Z,23.72
2022-09-02T07:58:22.396Z,23.69
2022-09-02T08:00:53.839Z,23.56
2022-09-02T08:03:25.674Z,23.36
2022-09-02T08:05:57.279Z,23.21
2022-09-02T08:08:28.334Z,23.28
2022-09-02T08:10:59.224Z,23.53
2022-09-02T08:13:29.614Z,23.75
2022-09-02T08:15:59.940Z,23.97
2022-09-02T08:18:30.317Z,24.26
2022-09-02T08:21:00.763Z,24.41
2022-09-02T08:23:37.095Z,24.50
2022-09-02T08:26:08.268Z,24.63
2022-09-02T08:28:39.336Z,24.80
2022-09-02T08:31:10.762Z,24.94
2022-09-02T08:33:41.075Z,24.87
2022-09-02T08:36:14.977Z,24.76
2022-09-02T08:38:45.411Z,24.64
2022-09-02T08:41:21.945Z,24.56
2022-09-02T08:43:53.969Z,24.67
2022-09-02T08:46:29.085Z,24.63
2022-09-02T08:49:04.119Z,24.79
2022-09-02T08:51:38.817Z,25.18
2022-09-02T08:54:13.346Z,25.46
2022-09-02T08:56:43.703Z,25.39
2022-09-02T08:59:15.790Z,25.43
2022-09-02T09:01:46.251Z,25.59
2022-09-02T09:04:24.630Z,25.55
2022-09-02T09:07:19.904Z,25.53
2022-09-02T09:10:00.980Z,25.56
2022-09-02T09:12:43.927Z,25.62
2022-09-02T09:15:21.133Z,25.82
2022-09-02T09:17:59.142Z,26.11
2022-09-02T09:20:33.633Z,26.29
2022-09-02T09:23:17.722Z,26.45
2022-09-02T09:25:54.394Z,26.33
2022-09-02T09:28:25.948Z,26.42
2022-09-02T09:30:59.194Z,26.67
2022-09-02T09:33:31.102Z,26.74
2022-09-02T09:36:04.251Z,26.79
2022-09-02T09:38:39.263Z,26.91
2022-09-02T09:41:24.160Z,26.80
2022-09-02T09:43:57.172Z,26.88
2022-09-02T09:46:33.403Z,27.11
2022-09-02T09:49:04.977Z,27.41
2022-09-02T09:51:49.949Z,27.60
2022-09-02T09:54:22.157Z,27.80
2022-09-02T09:56:54.300Z,28.06
2022-09-02T09:59:41.155Z,28.10
2022-09-02T10:02:23.371Z,28.09
2022-09-02T10:04:56.186Z,28.32
2022-09-02T10:13:27.015Z,28.56
2022-09-02T10:16:05.107Z,28.44
2022-09-02T10:18:39.362Z,28.03
2022-09-02T10:21:17.407Z,27.24
2022-09-02T10:23:53.543Z,26.70
2022-09-02T10:26:30.500Z,26.85
2022-09-02T10:29:29.705Z,27.68
2022-09-02T10:32:15.771Z,28.63
2022-09-02T10:39:23.575Z,29.28
2022-09-02T10:41:55.772Z,29.54
2022-09-02T10:44:32.592Z,29.11
2022-09-02T10:47:05.211Z,28.97
2022-09-02T10:49:44.961Z,29.23
2022-09-02T10:52:28.287Z,28.94
2022-09-02T10:55:04.096Z,29.06
2022-09-02T10:57:36.840Z,29.51
2022-09-02T11:00:14.496Z,30.01
2022-09-02T11:02:52.581Z,30.26
2022-09-02T11:05:25.971Z,30.47
2022-09-02T11:07:59.188Z,30.26
2022-09-02T11:10:33.918Z,30.07
2022-09-02T11:13:08.013Z,29.77
2022-09-02T11:15:48.517Z,28.57
2022-09-02T11:18:23.664Z,28.27
2022-09-02T11:21:02.105Z,28.50
2022-09-02T11:23:38.445Z,28.98
2022-09-02T11:26:11.941Z,29.65
2022-09-02T11:28:47.771Z,30.34
2022-09-02T11:31:22.977Z,30.30
2022-09-02T11:33:57.735Z,28.94
2022-09-02T11:36:33.265Z,28.04
2022-09-02T11:39:06.314Z,28.77
2022-09-02T11:41:53.882Z,29.60
2022-09-02T11:44:52.807Z,29.90
2022-09-02T11:47:45.707Z,30.13
2022-09-02T11:50:35.806Z,30.69
2022-09-02T11:53:20.848Z,30.34
2022-09-02T11:55:53.906Z,29.76
2022-09-02T12:04:59.742Z,29.93
2022-09-02T12:07:31.979Z,30.07
2022-09-02T12:10:06.204Z,30.44
2022-09-02T12:13:08.002Z,30.05
2022-09-02T12:15:40.573Z,29.78
2022-09-02T12:18:15.772Z,30.27
2022-09-02T12:21:16.327Z,30.49
2022-09-02T12:24:11.940Z,31.09
2022-09-02T12:27:10.061Z,31.80
2022-09-02T12:29:40.372Z,32.53
2022-09-02T12:32:11.064Z,31.54
2022-09-02T12:35:01.986Z,30.30
2022-09-02T12:37:55.293Z,30.28
2022-09-02T12:40:32.131Z,30.89
2022-09-02T12:43:07.719Z,31.98
2022-09-02T12:45:43.534Z,32.91
2022-09-02T12:48:16.528Z,33.71
2022-09-02T12:50:58.448Z,34.41
2022-09-02T12:53:34.757Z,35.17
2022-09-02T12:56:09.489Z,35.31
2022-09-02T12:58:48.668Z,34.92
2022-09-02T13:01:23.644Z,35.53
2022-09-02T13:04:02.286Z,35.92
2022-09-02T13:06:45.189Z,36.08
2022-09-02T13:09:43.177Z,35.51
2022-09-02T13:12:30.207Z,35.81
2022-09-02T13:15:13.132Z,36.34
2022-09-02T13:17:54.394Z,36.60
2022-09-02T13:20:42.831Z,36.75
2022-09-02T13:23:31.632Z,37.08
2022-09-02T13:26:27.618Z,37.23
2022-09-02T13:29:32.777Z,37.44
2022-09-02T13:32:05.040Z,37.65
2022-09-02T13:34:35.387Z,37.72
2022-09-02T13:37:05.751Z,37.64
2022-09-02T13:39:36.166Z,37.62
2022-09-02T13:42:19.382Z,37.47
2022-09-02T13:44:50.129Z,37.33
2022-09-02T13:47:21.340Z,37.31
2022-09-02T13:49:53.895Z,37.41
2022-09-02T13:53:01.111Z,37.79
2022-09-02T13:55:16.972Z,37.85
2022-09-02T13:57:49.020Z,37.85
2022-09-02T14:00:29.980Z,37.65
2022-09-02T14:03:00.418Z,37.75
2022-09-02T14:05:32.096Z,37.79
2022-09-02T14:08:05.152Z,37.73
2022-09-02T14:10:38.887Z,37.63
2022-09-02T14:13:09.836Z,37.70
2022-09-02T14:15:38.730Z,37.59
2022-09-02T14:18:18.524Z,37.27
2022-09-02T14:21:01.096Z,36.44
2022-09-02T14:23:34.509Z,34.10
2022-09-02T14:26:05.147Z,32.15
2022-09-02T14:28:36.668Z,30.26
2022-09-02T14:31:08.711Z,28.69
2022-09-02T14:33:44.486Z,27.48
2022-09-02T14:36:34.657Z,26.61
2022-09-02T14:39:16.926Z,25.83
2022-09-02T14:41:46.608Z,25.28
2022-09-02T14:44:22.871Z,24.83
2022-09-02T14:46:54.716Z,24.52
2022-09-02T14:49:29.186Z,24.29
2022-09-02T14:52:00.676Z,24.11
2022-09-02T14:54:39.639Z,24.00
2022-09-02T14:57:23.857Z,23.85
2022-09-02T14:59:55.675Z,23.67
2022-09-02T15:02:32.040Z,23.52
2022-09-02T15:05:04.478Z,23.38
2022-09-02T15:07:35.730Z,23.26
2022-09-02T15:10:08.145Z,23.19
2022-09-02T15:12:41.734Z,23.14
2022-09-02T15:15:12.463Z,23.09
2022-09-02T15:17:42.821Z,22.99
2022-09-02T15:20:13.860Z,22.93
2022-09-02T15:22:44.243Z,22.91
2022-09-02T15:25:14.621Z,22.89
2022-09-02T15:27:44.951Z,22.90
2022-09-02T15:30:16.096Z,22.88
2022-09-02T15:32:46.419Z,22.85
2022-09-02T15:35:16.759Z,22.81
2022-09-02T15:37:48.199Z,22.81
2022-09-02T15:40:18.657Z,22.81
2022-09-02T15:42:49.042Z,22.79
2022-09-02T15:45:19.397Z,22.76
2022-09-02T15:47:49.752Z,22.70
2022-09-02T15:50:20.660Z,22.63
2022-09-02T15:52:51.013Z,22.58
2022-09-02T15:55:29.021Z,22.53
2022-09-02T15:58:00.167Z,22.47
2022-09-02T16:00:34.816Z,22.44
2022-09-02T16:03:05.281Z,22.40
2022-09-02T16:05:36.646Z,22.36
2022-09-02T16:08:07.049Z,22.28
2022-09-02T16:10:40.423Z,22.25
2022-09-02T16:13:10.785Z,22.21
2022-09-02T16:15:41.141Z,22.18
2022-09-02T16:18:11.504Z,22.15
2022-09-02T16:20:48.303Z,22.11
2022-09-02T16:23:18.828Z,22.07
2022-09-02T16:25:49.286Z,22.03
2022-09-02T16:28:19.598Z,22.02
2022-09-02T16:30:49.995Z,22.00
2022-09-02T16:33:20.742Z,21.96
2022-09-02T16:35:51.378Z,21.91
2022-09-02T16:38:21.737Z,21.85
2022-09-02T16:40:54.024Z,21.80
2022-09-02T16:43:24.695Z,21.75
2022-09-02T16:45:55.830Z,21.68
2022-09-02T16:48:26.348Z,21.61
2022-09-02T16:50:56.705Z,21.55
2022-09-02T16:53:27.011Z,21.49
2022-09-02T16:55:57.912Z,21.44
2022-09-02T16:58:29.767Z,21.39
2022-09-02T17:01:00.418Z,21.35
2022-09-02T17:03:30.826Z,21.31
2022-09-02T17:06:01.272Z,21.27
2022-09-02T17:08:32.678Z,21.21
2022-09-02T17:11:20.456Z,21.17
2022-09-02T17:13:52.460Z,21.12
2022-09-02T17:16:24.518Z,21.06
2022-09-02T17:18:55.217Z,21.01
2022-09-02T17:21:27.799Z,20.95
2022-09-02T17:23:58.981Z,20.90
2022-09-02T17:26:30.936Z,20.85
2022-09-02T17:29:01.538Z,20.80
2022-09-02T17:31:33.346Z,20.74
2022-09-02T17:34:05.907Z,20.70
2022-09-02T17:36:35.988Z,20.65
2022-09-02T17:39:08.190Z,20.58
2022-09-02T17:41:57.582Z,20.48
2022-09-02T17:44:35.823Z,20.37
2022-09-02T17:47:07.519Z,20.26
2022-09-02T17:49:38.773Z,20.18
2022-09-02T17:52:09.604Z,20.10
2022-09-02T17:54:41.077Z,20.03
2022-09-02T17:57:19.227Z,19.95
2022-09-02T17:59:59.141Z,19.87
2022-09-02T18:02:48.786Z,19.82
2022-09-02T18:05:28.420Z,19.75
2022-09-02T18:08:03.826Z,19.68
2022-09-02T18:10:36.295Z,19.61
2022-09-02T18:13:09.184Z,19.55
2022-09-02T18:15:45.164Z,19.49
2022-09-02T18:18:18.969Z,19.41
2022-09-02T18:20:52.904Z,19.35
2022-09-02T18:23:44.195Z,19.27
2022-09-02T18:26:20.113Z,19.23
2022-09-02T18:28:58.025Z,19.19
2022-09-02T18:31:40.725Z,19.11
2022-09-02T18:34:24.192Z,19.02
2022-09-02T18:37:06.204Z,18.92
2022-09-02T18:39:51.250Z,18.84
2022-09-02T18:42:29.317Z,18.74
2022-09-02T18:45:07.417Z,18.66
2022-09-02T18:47:43.421Z,18.59
2022-09-02T18:50:44.989Z,18.50
2022-09-02T18:53:15.638Z,18.37
2022-09-02T18:55:46.770Z,18.24
2022-09-02T18:58:23.560Z,18.12
2022-09-02T19:00:58.110Z,17.99
2022-09-02T19:03:29.117Z,17.87
2022-09-02T19:05:59.767Z,17.81
2022-09-02T19:08:34.048Z,17.75
2022-09-02T19:11:08.047Z,17.69
2022-09-02T19:13:46.945Z,17.62
2022-09-02T19:16:20.803Z,17.58
2022-09-02T19:18:51.869Z,17.56
2022-09-02T19:21:25.155Z,17.52
2022-09-02T19:23:55.708Z,17.52
2022-09-02T19:26:26.517Z,17.48
2022-09-02T19:28:57.149Z,17.41
2022-09-02T19:31:31.678Z,17.34
2022-09-02T19:34:03.193Z,17.27
2022-09-02T19:36:34.788Z,17.26
2022-09-02T19:39:05.371Z,17.28
2022-09-02T19:41:35.853Z,17.34
2022-09-02T19:44:06.226Z,17.39
2022-09-02T19:47:20.613Z,17.39
2022-09-02T19:49:26.879Z,17.33
2022-09-02T19:51:57.240Z,17.29
2022-09-02T19:54:29.140Z,17.24
2022-09-02T19:56:59.466Z,17.19
2022-09-02T19:59:30.742Z,17.15
2022-09-02T20:02:04.352Z,17.13
2022-09-02T20:04:34.990Z,17.10
2022-09-02T20:07:05.428Z,17.07
2022-09-02T20:09:35.747Z,17.03
2022-09-02T20:12:06.411Z,16.98
2022-09-02T20:14:37.338Z,16.91
2022-09-02T20:17:12.117Z,16.90
2022-09-02T20:19:43.511Z,16.91
2022-09-02T20:22:16.897Z,16.89
2022-09-02T20:24:47.383Z,16.85
2022-09-02T20:27:25.366Z,16.83
2022-09-02T20:30:06.437Z,16.82
2022-09-02T20:32:49.394Z,16.80
2022-09-02T20:35:24.307Z,16.78
2022-09-02T20:37:58.567Z,16.75
2022-09-02T20:40:34.725Z,16.70
2022-09-02T20:43:28.826Z,16.66
2022-09-02T20:46:02.063Z,16.61
2022-09-02T20:48:47.299Z,16.60
2022-09-02T20:51:21.927Z,16.56
2022-09-02T20:54:07.623Z,16.53
2022-09-02T20:56:46.020Z,16.51
2022-09-02T20:59:23.356Z,16.50
2022-09-02T21:02:01.814Z,16.51
2022-09-02T21:04:36.211Z,16.55
2022-09-02T21:07:09.442Z,16.54
2022-09-02T21:09:44.843Z,16.51
2022-09-02T21:12:24.402Z,16.50
2022-09-02T21:15:10.913Z,16.48
2022-09-02T21:17:48.369Z,16.46
2022-09-02T21:20:22.653Z,16.48
2022-09-02T21:22:57.847Z,16.51
2022-09-02T21:25:31.995Z,16.53
2022-09-02T21:28:07.088Z,16.53
2022-09-02T21:30:40.724Z,16.55
2022-09-02T21:33:14.484Z,16.56
2022-09-02T21:35:47.241Z,16.56
2022-09-02T21:38:20.799Z,16.57
2022-09-02T21:41:04.757Z,16.59
2022-09-02T21:43:48.731Z,16.59
2022-09-02T21:46:28.457Z,16.59
2022-09-02T21:49:06.083Z,16.58
2022-09-02T21:51:39.448Z,16.57
2022-09-02T21:54:25.691Z,16.55
2022-09-02T21:57:06.303Z,16.53
2022-09-02T21:59:48.668Z,16.52
2022-09-02T22:02:25.685Z,16.50
2022-09-02T22:05:03.168Z,16.49
2022-09-02T22:07:38.953Z,16.46
2022-09-02T22:10:16.670Z,16.45
2022-09-02T22:12:52.191Z,16.42
2022-09-02T22:15:27.908Z,16.38
2022-09-02T22:18:03.023Z,16.38
2022-09-02T22:20:39.033Z,16.34
2022-09-02T22:23:15.518Z,16.28
2022-09-02T22:25:48.642Z,16.24
2022-09-02T22:28:23.953Z,16.21
2022-09-02T22:30:59.778Z,16.20
2022-09-02T22:33:34.010Z,16.18
2022-09-02T22:36:09.695Z,16.14
2022-09-02T22:38:44.213Z,16.12
2022-09-02T22:41:23.721Z,16.09
2022-09-02T22:44:00.074Z,16.08
2022-09-02T22:46:53.269Z,16.04
2022-09-02T22:49:44.982Z,16.00
2022-09-02T22:52:44.825Z,15.97
2022-09-02T22:55:16.884Z,15.93
2022-09-02T22:57:56.923Z,15.91
2022-09-02T23:00:27.337Z,15.90
2022-09-02T23:03:09.152Z,15.88
2022-09-02T23:05:52.972Z,15.85
2022-09-02T23:08:24.104Z,15.85
2022-09-02T23:11:00.844Z,15.84
2022-09-02T23:13:43.711Z,15.81
2022-09-02T23:16:23.480Z,15.77
2022-09-02T23:19:04.007Z,15.73
2022-09-02T23:21:42.275Z,15.70
2022-09-02T23:24:19.748Z,15.68
2022-09-02T23:26:58.158Z,15.67
2022-09-02T23:29:28.685Z,15.68
2022-09-02T23:32:10.447Z,15.65
2022-09-02T23:34:57.995Z,15.63
2022-09-02T23:37:36.342Z,15.62
2022-09-02T23:40:13.376Z,15.62
2022-09-02T23:42:43.755Z,15.63
2022-09-02T23:45:21.888Z,15.60
2022-09-02T23:48:06.168Z,15.60
2022-09-02T23:50:45.729Z,15.58
2022-09-02T23:53:22.785Z,15.57
2022-09-02T23:55:59.803Z,15.54
2022-09-02T23:58:44.248Z,15.53
